Time;durP1;ratioP1;P1;durP2;ratioP2;P2;SDS_P1;SDS_P2;PMS_P1;PMS_P2;Temp;Humidity;BMP_temperature;BMP_pressure;BME280_temperature;BME280_humidity;BME280_pressure;Samples;Min_cycle;Max_cycle;Signal;HPM_P1;HPM_P2
2022/01/27 00:07:34;;;;;;;66.35;25.23;;;;;;;;;;5061406;28;20147;-73
2022/01/27 00:10:17;;;;;;;64.30;26.25;;;;;;;;;;5061591;28;20162;-73
2022/01/27 00:12:43;;;;;;;67.50;24.70;;;;;;;;;;5060947;28;20241;-73
2022/01/27 00:15:12;;;;;;;42.25;17.80;;;;;;;;;;5061261;28;20508;-72
2022/01/27 00:17:43;;;;;;;71.75;26.88;;;;;;;;;;5061028;28;20040;-70
2022/01/27 00:20:09;;;;;;;65.78;25.40;;;;;;;;;;5061533;28;21125;-70
2022/01/27 00:22:34;;;;;;;66.18;26.40;;;;;;;;;;5062046;28;20544;-70
2022/01/27 00:25:02;;;;;;;67.35;26.75;;;;;;;;;;5059983;28;20032;-70
2022/01/27 00:27:28;;;;;;;59.03;22.15;;;;;;;;;;5060914;28;20036;-70
2022/01/27 00:29:53;;;;;;;57.67;24.50;;;;;;;;;;5061151;28;20029;-72
2022/01/27 00:32:19;;;;;;;53.42;21.35;;;;;;;;;;5061494;28;20051;-72
2022/01/27 00:34:44;;;;;;;54.97;25.23;;;;;;;;;;5060374;28;20044;-73
2022/01/27 00:37:10;;;;;;;34.13;16.83;;;;;;;;;;5061085;28;20039;-72
2022/01/27 00:39:35;;;;;;;48.35;21.02;;;;;;;;;;5061298;28;20048;-72
2022/01/27 00:42:01;;;;;;;40.80;17.90;;;;;;;;;;5061215;28;20032;-73
2022/01/27 00:44:26;;;;;;;62.60;23.83;;;;;;;;;;5061604;28;20789;-72
2022/01/27 00:46:51;;;;;;;60.60;25.52;;;;;;;;;;5060199;28;20036;-73
2022/01/27 00:49:17;;;;;;;64.82;24.33;;;;;;;;;;5060961;28;20552;-73
2022/01/27 00:51:45;;;;;;;43.38;18.80;;;;;;;;;;5061270;28;20083;-72
2022/01/27 00:54:20;;;;;;;49.00;19.42;;;;;;;;;;5061057;28;20047;-73
2022/01/27 00:56:55;;;;;;;58.08;21.48;;;;;;;;;;5059903;28;20170;-73
2022/01/27 00:59:58;;;;;;;36.95;16.60;;;;;;;;;;5060890;28;20465;-72
2022/01/27 01:02:21;;;;;;;33.35;16.83;;;;;;;;;;5059888;28;20043;-70
2022/01/27 01:04:56;;;;;;;47.05;19.50;;;;;;;;;;5061317;28;20503;-70
2022/01/27 01:07:21;;;;;;;39.50;17.10;;;;;;;;;;5060798;28;20439;-72
2022/01/27 01:13:31;;;;;;;56.35;21.58;;;;;;;;;;5065247;28;20657;-71
2022/01/27 01:15:32;;;;;;;36.25;15.25;;;;;;;;;;5064719;28;20032;-70
2022/01/27 01:18:34;;;;;;;22.13;11.05;;;;;;;;;;5064444;28;20040;-71
2022/01/27 01:36:43;;;;;;;31.27;14.82;;;;;;;;;;5064835;28;20125;-70
2022/01/27 01:39:08;;;;;;;51.00;19.33;;;;;;;;;;5064489;28;20044;-70
2022/01/27 01:41:34;;;;;;;47.28;19.30;;;;;;;;;;5063649;28;20078;-70
2022/01/27 01:43:59;;;;;;;44.30;18.40;;;;;;;;;;5064661;28;20040;-70
2022/01/27 01:46:25;;;;;;;42.10;22.65;;;;;;;;;;5064295;28;20032;-72
2022/01/27 01:48:51;;;;;;;39.28;17.08;;;;;;;;;;5064078;28;20044;-70
2022/01/27 01:51:25;;;;;;;36.63;17.85;;;;;;;;;;5063886;28;20093;-69
2022/01/27 01:53:51;;;;;;;25.80;15.32;;;;;;;;;;5064256;28;20393;-70
2022/01/27 01:56:17;;;;;;;38.28;16.33;;;;;;;;;;5063826;28;20044;-69
2022/01/27 01:58:42;;;;;;;23.38;12.60;;;;;;;;;;5064451;28;20054;-70
2022/01/27 02:01:09;;;;;;;48.15;20.50;;;;;;;;;;5064436;28;20168;-70
2022/01/27 02:03:34;;;;;;;49.22;20.80;;;;;;;;;;5063802;28;20532;-70
2022/01/27 02:06:00;;;;;;;45.38;20.00;;;;;;;;;;5064169;28;20091;-70
2022/01/27 02:19:22;;;;;;;41.97;18.88;;;;;;;;;;5063740;28;20763;-72
2022/01/27 02:21:56;;;;;;;49.95;21.15;;;;;;;;;;5063591;28;20042;-73
2022/01/27 02:24:23;;;;;;;52.47;21.38;;;;;;;;;;5061505;28;20074;-73
2022/01/27 02:26:51;;;;;;;62.92;24.90;;;;;;;;;;5063670;28;20143;-76
2022/01/27 02:29:18;;;;;;;69.22;25.88;;;;;;;;;;5063010;28;20177;-72
2022/01/27 02:31:44;;;;;;;72.88;26.55;;;;;;;;;;5063388;28;20111;-71
2022/01/27 02:34:10;;;;;;;72.13;26.50;;;;;;;;;;5063738;28;20775;-72
2022/01/27 02:36:35;;;;;;;74.93;27.23;;;;;;;;;;5062574;28;20119;-74
2022/01/27 02:39:03;;;;;;;69.03;27.90;;;;;;;;;;5063136;28;20047;-73
2022/01/27 02:41:35;;;;;;;67.57;26.65;;;;;;;;;;5063545;28;20792;-73
2022/01/27 02:44:00;;;;;;;65.97;24.92;;;;;;;;;;5063572;28;20453;-73
2022/01/27 02:46:34;;;;;;;70.30;24.95;;;;;;;;;;5062196;28;20079;-75
2022/01/27 02:48:59;;;;;;;65.32;26.73;;;;;;;;;;5062967;28;20449;-76
2022/01/27 02:51:25;;;;;;;70.85;26.27;;;;;;;;;;5063196;28;20151;-73
2022/01/27 02:53:50;;;;;;;67.13;26.75;;;;;;;;;;5059631;28;20028;-75
2022/01/27 02:56:16;;;;;;;66.30;25.83;;;;;;;;;;5062599;28;20044;-73
2022/01/27 02:58:41;;;;;;;71.40;25.50;;;;;;;;;;5062077;28;20033;-74
2022/01/27 03:01:07;;;;;;;61.42;24.77;;;;;;;;;;5062790;28;20493;-69
2022/01/27 03:03:32;;;;;;;66.47;26.40;;;;;;;;;;5063310;28;20055;-73
2022/01/27 03:05:57;;;;;;;70.43;24.85;;;;;;;;;;5062483;28;20123;-75
2022/01/27 03:08:23;;;;;;;70.85;27.73;;;;;;;;;;5077769;28;20047;-72
2022/01/27 03:10:57;;;;;;;58.22;23.75;;;;;;;;;;5062810;28;20043;-72
2022/01/27 03:13:22;;;;;;;71.00;25.73;;;;;;;;;;5063253;28;20040;-72
2022/01/27 03:15:48;;;;;;;72.22;25.33;;;;;;;;;;5062864;28;20040;-71
2022/01/27 03:18:14;;;;;;;63.58;25.85;;;;;;;;;;5062643;28;20131;-72
2022/01/27 03:20:39;;;;;;;68.70;25.50;;;;;;;;;;5061748;28;20036;-72
2022/01/27 03:23:06;;;;;;;65.65;26.35;;;;;;;;;;5062725;28;20067;-73
2022/01/27 03:25:32;;;;;;;70.78;26.92;;;;;;;;;;5062528;28;20040;-73
2022/01/27 03:27:58;;;;;;;72.78;25.38;;;;;;;;;;5062456;28;20036;-76
2022/01/27 03:30:23;;;;;;;65.60;25.75;;;;;;;;;;5061302;28;20041;-70
2022/01/27 03:32:48;;;;;;;66.43;25.15;;;;;;;;;;5062259;28;20908;-72
2022/01/27 03:35:14;;;;;;;68.93;24.48;;;;;;;;;;5062818;28;20040;-71
2022/01/27 03:37:39;;;;;;;68.43;27.00;;;;;;;;;;5062071;28;20055;-73
2022/01/27 03:40:05;;;;;;;96.22;26.75;;;;;;;;;;5062537;28;20032;-72
2022/01/27 03:42:31;;;;;;;103.57;27.95;;;;;;;;;;5061338;28;20095;-70
2022/01/27 03:44:57;;;;;;;116.60;28.38;;;;;;;;;;5062425;28;20571;-70
2022/01/27 03:47:22;;;;;;;188.30;26.92;;;;;;;;;;5061694;28;20028;-70
2022/01/27 03:49:48;;;;;;;246.70;28.77;;;;;;;;;;5062285;28;20811;-71
2022/01/27 03:52:13;;;;;;;189.43;27.25;;;;;;;;;;5061046;28;20052;-72
2022/01/27 03:54:39;;;;;;;150.20;26.30;;;;;;;;;;5060676;28;20090;-72
2022/01/27 03:57:04;;;;;;;375.70;29.88;;;;;;;;;;5076770;28;20052;-72
2022/01/27 03:59:30;;;;;;;192.77;26.90;;;;;;;;;;5061844;28;20040;-71
2022/01/27 04:01:56;;;;;;;134.32;26.40;;;;;;;;;;5061392;28;20078;-72
2022/01/27 04:04:22;;;;;;;186.88;27.08;;;;;;;;;;5061222;28;20097;-72
2022/01/27 04:06:51;;;;;;;156.55;26.83;;;;;;;;;;5061818;28;20028;-72
2022/01/27 04:09:16;;;;;;;313.23;29.02;;;;;;;;;;5061160;28;20059;-72
2022/01/27 04:11:42;;;;;;;138.13;25.30;;;;;;;;;;5063111;28;21109;-73
2022/01/27 04:14:10;;;;;;;383.23;29.70;;;;;;;;;;5061314;28;20033;-73
2022/01/27 04:16:36;;;;;;;181.75;22.52;;;;;;;;;;5061398;28;20119;-73
2022/01/27 04:19:02;;;;;;;138.93;24.67;;;;;;;;;;5061306;28;20120;-75
2022/01/27 04:21:28;;;;;;;147.13;24.92;;;;;;;;;;5061726;28;20044;-72
2022/01/27 04:23:53;;;;;;;119.88;24.08;;;;;;;;;;5061824;28;20881;-72
2022/01/27 04:26:24;;;;;;;140.05;23.67;;;;;;;;;;5061013;28;20381;-72
2022/01/27 04:28:51;;;;;;;123.13;25.58;;;;;;;;;;5061534;28;20032;-73
2022/01/27 04:31:17;;;;;;;156.35;25.23;;;;;;;;;;5061395;28;20032;-73
2022/01/27 04:33:42;;;;;;;110.43;24.70;;;;;;;;;;5061708;28;20105;-72
2022/01/27 04:36:17;;;;;;;87.05;23.70;;;;;;;;;;5060592;28;20043;-75
2022/01/27 04:41:18;;;;;;;82.35;21.70;;;;;;;;;;5061338;28;20028;-72
2022/01/27 04:46:37;;;;;;;88.15;23.23;;;;;;;;;;5061180;28;21058;-72
2022/01/27 04:48:59;;;;;;;67.53;21.60;;;;;;;;;;5059783;28;20135;-72
2022/01/27 04:51:25;;;;;;;120.07;21.88;;;;;;;;;;5061060;28;20117;-71
2022/01/27 04:56:24;;;;;;;71.82;21.73;;;;;;;;;;5060532;28;20070;-72
2022/01/27 04:58:55;;;;;;;141.88;21.48;;;;;;;;;;5060141;28;20102;-72
2022/01/27 05:01:28;;;;;;;81.68;21.30;;;;;;;;;;5061066;28;20040;-72
2022/01/27 05:04:00;;;;;;;54.33;20.27;;;;;;;;;;5060873;28;20101;-72
2022/01/27 05:06:25;;;;;;;148.95;21.08;;;;;;;;;;5061124;28;20118;-72
2022/01/27 05:08:51;;;;;;;158.73;20.92;;;;;;;;;;5058533;28;20489;-72
2022/01/27 05:11:27;;;;;;;89.40;20.45;;;;;;;;;;5059674;28;20040;-72
2022/01/27 05:13:58;;;;;;;58.35;19.25;;;;;;;;;;5060717;28;20971;-72
2022/01/27 05:16:23;;;;;;;52.60;21.70;;;;;;;;;;5060751;28;20032;-71
2022/01/27 05:18:49;;;;;;;52.88;21.17;;;;;;;;;;5060800;28;20590;-72
2022/01/27 05:21:15;;;;;;;62.63;23.02;;;;;;;;;;5058684;28;20545;-71
2022/01/27 05:23:40;;;;;;;49.75;21.17;;;;;;;;;;5061013;28;20041;-71
2022/01/27 05:26:05;;;;;;;46.50;20.77;;;;;;;;;;5060751;28;20041;-70
2022/01/27 05:28:31;;;;;;;51.63;21.55;;;;;;;;;;5060931;28;20036;-72
2022/01/27 05:30:56;;;;;;;80.57;18.55;;;;;;;;;;5060566;28;20040;-71
2022/01/27 05:33:22;;;;;;;46.90;20.95;;;;;;;;;;5060056;28;20086;-72
2022/01/27 05:35:48;;;;;;;43.70;19.58;;;;;;;;;;5060398;28;20048;-71
2022/01/27 05:38:14;;;;;;;48.60;20.70;;;;;;;;;;5060705;28;20111;-71
2022/01/27 05:40:41;;;;;;;47.65;20.30;;;;;;;;;;5060687;28;20035;-72
2022/01/27 05:43:06;;;;;;;47.85;20.90;;;;;;;;;;5059544;28;20032;-71
2022/01/27 05:45:31;;;;;;;44.47;20.17;;;;;;;;;;5060716;28;20473;-72
2022/01/27 05:47:57;;;;;;;43.40;19.70;;;;;;;;;;5060387;28;20048;-71
2022/01/27 05:50:23;;;;;;;49.58;21.40;;;;;;;;;;5060417;28;20037;-71
2022/01/27 05:52:48;;;;;;;47.50;19.85;;;;;;;;;;5060585;28;20036;-72
2022/01/27 05:55:14;;;;;;;43.47;20.58;;;;;;;;;;5063727;28;20032;-72
2022/01/27 05:57:39;;;;;;;43.88;20.85;;;;;;;;;;5064036;28;20109;-71
2022/01/27 06:00:06;;;;;;;41.58;19.20;;;;;;;;;;5064383;28;20083;-72
2022/01/27 06:02:38;;;;;;;40.47;18.85;;;;;;;;;;5064581;28;20093;-71
2022/01/27 06:05:08;;;;;;;44.08;19.27;;;;;;;;;;5063363;28;20032;-78
2022/01/27 06:07:33;;;;;;;40.53;18.73;;;;;;;;;;5048078;28;20093;-75
2022/01/27 06:09:59;;;;;;;47.45;20.33;;;;;;;;;;5063652;28;20442;-73
2022/01/27 06:12:24;;;;;;;45.90;21.05;;;;;;;;;;5063969;28;20064;-76
2022/01/27 06:14:50;;;;;;;37.63;19.20;;;;;;;;;;5063895;28;20139;-72
2022/01/27 06:17:15;;;;;;;44.40;19.42;;;;;;;;;;5062819;28;20491;-74
2022/01/27 06:19:44;;;;;;;47.70;20.02;;;;;;;;;;5063254;28;20040;-72
2022/01/27 06:22:13;;;;;;;45.28;18.73;;;;;;;;;;5063151;28;20060;-74
2022/01/27 06:24:42;;;;;;;51.10;20.63;;;;;;;;;;5062006;28;20604;-75
2022/01/27 06:27:09;;;;;;;43.70;20.15;;;;;;;;;;5061242;28;20028;-74
2022/01/27 06:29:35;;;;;;;42.15;19.17;;;;;;;;;;5061980;28;20362;-75
2022/01/27 06:32:02;;;;;;;42.83;18.45;;;;;;;;;;5061787;28;20094;-72
2022/01/27 06:34:28;;;;;;;41.60;19.85;;;;;;;;;;5061725;28;20033;-73
2022/01/27 06:36:54;;;;;;;41.13;21.73;;;;;;;;;;5063690;28;20093;-75
2022/01/27 06:39:19;;;;;;;51.33;20.58;;;;;;;;;;5062994;28;20132;-73
2022/01/27 06:41:45;;;;;;;48.10;20.60;;;;;;;;;;5063446;28;20066;-75
2022/01/27 06:44:11;;;;;;;44.67;21.90;;;;;;;;;;5063929;28;20036;-75
2022/01/27 06:46:36;;;;;;;43.67;21.05;;;;;;;;;;5064340;28;20063;-73
2022/01/27 06:49:05;;;;;;;49.38;20.05;;;;;;;;;;5062908;28;20056;-73
2022/01/27 06:51:31;;;;;;;53.47;22.98;;;;;;;;;;5063813;28;20032;-76
2022/01/27 06:53:58;;;;;;;52.95;22.17;;;;;;;;;;5063631;28;20037;-73
2022/01/27 06:56:25;;;;;;;49.38;23.25;;;;;;;;;;5062146;28;20045;-73
2022/01/27 06:58:51;;;;;;;55.08;24.80;;;;;;;;;;5063755;28;20037;-73
2022/01/27 07:01:16;;;;;;;61.00;24.75;;;;;;;;;;5062551;28;20037;-76
2022/01/27 07:03:41;;;;;;;51.13;22.83;;;;;;;;;;5063486;28;20036;-73
2022/01/27 07:06:07;;;;;;;63.55;25.10;;;;;;;;;;5059524;28;20033;-77
2022/01/27 07:08:32;;;;;;;50.97;25.05;;;;;;;;;;5061176;28;20098;-74
2022/01/27 07:10:58;;;;;;;55.95;24.45;;;;;;;;;;5061919;28;20048;-76
2022/01/27 07:13:23;;;;;;;53.78;24.33;;;;;;;;;;5062968;28;20386;-74
2022/01/27 07:15:49;;;;;;;53.72;24.20;;;;;;;;;;5055694;28;20033;-73
2022/01/27 07:18:14;;;;;;;46.08;21.27;;;;;;;;;;5048242;28;20032;-75
2022/01/27 07:20:40;;;;;;;52.70;22.67;;;;;;;;;;5062271;28;20036;-77
2022/01/27 07:23:06;;;;;;;50.38;20.65;;;;;;;;;;5061061;28;20055;-73
2022/01/27 07:25:32;;;;;;;45.40;21.15;;;;;;;;;;5062657;28;20068;-75
2022/01/27 07:27:57;;;;;;;42.53;19.83;;;;;;;;;;5063148;28;20044;-74
2022/01/27 07:30:23;;;;;;;45.17;20.15;;;;;;;;;;5062288;28;20734;-76
2022/01/27 07:32:48;;;;;;;43.70;20.05;;;;;;;;;;5061650;28;20040;-72
2022/01/27 07:35:14;;;;;;;40.00;20.08;;;;;;;;;;5062512;28;20036;-74
2022/01/27 07:37:41;;;;;;;33.95;17.65;;;;;;;;;;5062980;28;20044;-73
2022/01/27 07:40:08;;;;;;;42.05;17.35;;;;;;;;;;5062555;28;20092;-72
2022/01/27 07:42:33;;;;;;;38.67;18.10;;;;;;;;;;5062977;28;20379;-72
2022/01/27 07:44:59;;;;;;;28.80;15.75;;;;;;;;;;5061884;28;20245;-73
2022/01/27 07:47:24;;;;;;;30.20;14.38;;;;;;;;;;5062729;28;20040;-73
2022/01/27 07:49:49;;;;;;;33.28;15.30;;;;;;;;;;5064441;28;20028;-73
2022/01/27 07:52:18;;;;;;;28.05;13.82;;;;;;;;;;5062771;28;20416;-72
2022/01/27 07:54:43;;;;;;;29.75;14.52;;;;;;;;;;5077112;28;20501;-73
2022/01/27 07:57:09;;;;;;;30.77;15.32;;;;;;;;;;5061611;28;20040;-73
2022/01/27 07:59:34;;;;;;;31.98;15.93;;;;;;;;;;5061551;28;20924;-72
2022/01/27 08:02:00;;;;;;;31.67;16.88;;;;;;;;;;5061995;28;20044;-76
2022/01/27 08:04:26;;;;;;;28.27;15.57;;;;;;;;;;5067750;28;20043;-75
2022/01/27 08:06:51;;;;;;;27.05;15.18;;;;;;;;;;5060875;28;21047;-73
2022/01/27 08:09:17;;;;;;;31.92;15.88;;;;;;;;;;5060855;28;20803;-72
2022/01/27 08:11:43;;;;;;;24.08;13.45;;;;;;;;;;5061880;28;21621;-72
2022/01/27 08:14:08;;;;;;;27.23;13.60;;;;;;;;;;5061568;28;20087;-72
2022/01/27 08:16:34;;;;;;;23.30;13.27;;;;;;;;;;5060387;28;20592;-73
2022/01/27 08:18:59;;;;;;;23.55;14.25;;;;;;;;;;5064191;28;20044;-74
2022/01/27 08:21:25;;;;;;;22.10;13.80;;;;;;;;;;5063962;28;20032;-73
2022/01/27 08:23:51;;;;;;;24.50;13.98;;;;;;;;;;5061278;28;20032;-72
2022/01/27 08:26:29;;;;;;;27.73;13.07;;;;;;;;;;5061909;28;20079;-75
2022/01/27 08:29:08;;;;;;;21.85;12.75;;;;;;;;;;5061410;28;20059;-72
2022/01/27 08:31:42;;;;;;;23.90;12.27;;;;;;;;;;5061871;28;20123;-71
2022/01/27 08:34:14;;;;;;;21.60;12.48;;;;;;;;;;5061687;28;20033;-75
2022/01/27 08:36:41;;;;;;;19.65;12.32;;;;;;;;;;5062008;28;20058;-73
2022/01/27 08:39:06;;;;;;;28.00;14.95;;;;;;;;;;5062640;28;20038;-73
2022/01/27 08:41:32;;;;;;;23.92;14.63;;;;;;;;;;5061892;28;20041;-72
2022/01/27 08:43:57;;;;;;;26.80;15.65;;;;;;;;;;5057020;28;20044;-73
2022/01/27 08:46:23;;;;;;;25.65;15.73;;;;;;;;;;5059554;28;20058;-70
2022/01/27 08:48:48;;;;;;;30.20;16.77;;;;;;;;;;5060128;28;20078;-72
2022/01/27 08:51:20;;;;;;;24.38;14.85;;;;;;;;;;5059582;28;20082;-72
2022/01/27 08:53:46;;;;;;;;;;;;;;;;;;5060656;28;20471;-72
2022/01/27 08:56:13;;;;;;;23.38;14.20;;;;;;;;;;5060836;28;20008;-71
2022/01/27 08:58:39;;;;;;;19.92;12.40;;;;;;;;;;5058039;28;20063;-74
2022/01/27 09:01:05;;;;;;;20.45;11.93;;;;;;;;;;5059459;28;20036;-71
2022/01/27 09:03:30;;;;;;;24.98;12.48;;;;;;;;;;5059434;28;20044;-71
2022/01/27 09:05:56;;;;;;;19.60;12.20;;;;;;;;;;5060873;28;20072;-71
2022/01/27 09:08:21;;;;;;;19.50;12.85;;;;;;;;;;5059916;28;20036;-74
2022/01/27 09:10:48;;;;;;;19.70;13.35;;;;;;;;;;5061098;28;20047;-71
2022/01/27 09:13:15;;;;;;;22.27;13.77;;;;;;;;;;5060059;28;20588;-73
2022/01/27 09:15:41;;;;;;;27.23;16.42;;;;;;;;;;5060860;28;20121;-72
2022/01/27 09:18:06;;;;;;;24.63;16.17;;;;;;;;;;5062232;28;20070;-74
2022/01/27 09:20:32;;;;;;;24.63;15.80;;;;;;;;;;5061304;28;20137;-73
2022/01/27 09:23:00;;;;;;;28.27;16.38;;;;;;;;;;5060233;28;20040;-70
2022/01/27 09:25:31;;;;;;;23.80;15.02;;;;;;;;;;5058846;28;20039;-73
2022/01/27 09:27:58;;;;;;;24.13;14.77;;;;;;;;;;5059918;28;20035;-71
2022/01/27 09:30:24;;;;;;;22.90;13.75;;;;;;;;;;5065151;28;20033;-73
2022/01/27 09:32:50;;;;;;;25.10;14.20;;;;;;;;;;5063514;28;20075;-75
2022/01/27 09:35:17;;;;;;;22.02;14.40;;;;;;;;;;5079223;28;20068;-72
2022/01/27 09:37:42;;;;;;;25.52;15.32;;;;;;;;;;5065104;28;21029;-74
2022/01/27 09:40:08;;;;;;;22.10;14.10;;;;;;;;;;5064708;28;20029;-71
2022/01/27 09:42:37;;;;;;;22.90;14.05;;;;;;;;;;5064959;28;20143;-72
2022/01/27 09:45:05;;;;;;;21.73;14.00;;;;;;;;;;5063758;28;20037;-73
2022/01/27 09:47:32;;;;;;;20.38;13.05;;;;;;;;;;5064544;28;20036;-72
2022/01/27 09:50:25;;;;;;;20.88;12.70;;;;;;;;;;5062756;28;20094;-74
2022/01/27 09:52:51;;;;;;;20.10;12.23;;;;;;;;;;5063380;28;20033;-72
2022/01/27 09:55:17;;;;;;;18.30;12.10;;;;;;;;;;5063188;28;20051;-73
2022/01/27 09:57:48;;;;;;;29.73;11.32;;;;;;;;;;5061363;28;20032;-75
2022/01/27 10:00:14;;;;;;;18.13;11.32;;;;;;;;;;5063022;28;20976;-74
2022/01/27 10:03:04;;;;;;;19.20;11.02;;;;;;;;;;5062946;28;20567;-73
2022/01/27 10:05:30;;;;;;;17.90;11.15;;;;;;;;;;5062592;28;20047;-73
2022/01/27 10:08:04;;;;;;;17.88;11.60;;;;;;;;;;5061340;28;20032;-76
2022/01/27 10:10:35;;;;;;;15.25;9.70;;;;;;;;;;5061508;28;20036;-75
2022/01/27 10:13:03;;;;;;;12.88;8.63;;;;;;;;;;5063179;28;20461;-73
2022/01/27 10:15:36;;;;;;;14.93;8.27;;;;;;;;;;5062905;28;20362;-73
2022/01/27 10:18:24;;;;;;;9.75;7.03;;;;;;;;;;5061429;28;20040;-74
2022/01/27 10:21:02;;;;;;;9.75;6.75;;;;;;;;;;5062318;28;20123;-75
2022/01/27 10:23:32;;;;;;;7.15;5.38;;;;;;;;;;5063104;28;20471;-74
2022/01/27 10:26:09;;;;;;;10.27;6.40;;;;;;;;;;5061535;28;20028;-73
2022/01/27 10:28:50;;;;;;;9.38;7.13;;;;;;;;;;5059644;28;21031;-71
2022/01/27 10:31:19;;;;;;;11.68;7.05;;;;;;;;;;5057381;28;20119;-71
2022/01/27 10:34:01;;;;;;;9.55;6.68;;;;;;;;;;5061979;28;20036;-73
2022/01/27 10:36:29;;;;;;;;;;;;;;;;;;5062850;28;20424;-75
2022/01/27 10:39:16;;;;;;;11.73;6.07;;;;;;;;;;5061604;28;19955;-72
2022/01/27 10:42:06;;;;;;;9.70;6.32;;;;;;;;;;5060970;28;20044;-71
2022/01/27 10:44:45;;;;;;;13.80;7.00;;;;;;;;;;5061148;28;20040;-72
2022/01/27 10:47:19;;;;;;;17.85;6.65;;;;;;;;;;5061684;28;20079;-73
2022/01/27 10:49:54;;;;;;;12.55;7.00;;;;;;;;;;5061801;28;20047;-72
2022/01/27 10:52:33;;;;;;;11.20;5.20;;;;;;;;;;5061446;28;20991;-74
2022/01/27 10:55:05;;;;;;;7.20;4.82;;;;;;;;;;5062367;28;20036;-74
2022/01/27 10:57:31;;;;;;;;;;;;;;;;;;5063062;28;20122;-73
2022/01/27 11:00:10;;;;;;;5.82;3.30;;;;;;;;;;5062390;28;19965;-73
2022/01/27 11:03:01;;;;;;;5.45;3.17;;;;;;;;;;5061599;28;20042;-73
2022/01/27 11:05:33;;;;;;;7.30;3.27;;;;;;;;;;5061529;28;20119;-72
2022/01/27 11:07:59;;;;;;;6.93;3.35;;;;;;;;;;5062250;28;20494;-72
2022/01/27 11:10:25;;;;;;;5.35;2.83;;;;;;;;;;5061915;28;20051;-74
2022/01/27 11:12:51;;;;;;;3.22;2.92;;;;;;;;;;5061842;28;20032;-75
2022/01/27 11:15:19;;;;;;;3.38;2.50;;;;;;;;;;5060245;28;20490;-71
2022/01/27 11:17:46;;;;;;;10.18;2.80;;;;;;;;;;5061767;28;20694;-70
2022/01/27 11:20:24;;;;;;;5.43;2.67;;;;;;;;;;5061538;28;20047;-71
2022/01/27 11:28:04;;;;;;;4.00;2.40;;;;;;;;;;5061405;28;20036;-71
2022/01/27 11:30:59;;;;;;;5.82;2.35;;;;;;;;;;5061638;28;20056;-72
2022/01/27 11:33:33;;;;;;;2.85;2.08;;;;;;;;;;5061430;28;20934;-70
2022/01/27 11:36:06;;;;;;;2.70;1.90;;;;;;;;;;5062349;28;20056;-71
2022/01/27 11:38:31;;;;;;;10.98;2.10;;;;;;;;;;5061924;28;20076;-71
2022/01/27 11:40:56;;;;;;;2.08;1.65;;;;;;;;;;5062635;28;20064;-70
2022/01/27 11:43:33;;;;;;;1.75;1.30;;;;;;;;;;5062448;28;20048;-70
2022/01/27 11:46:18;;;;;;;1.52;1.15;;;;;;;;;;5060423;28;20060;-70
2022/01/27 11:48:44;;;;;;;2.10;1.90;;;;;;;;;;5060926;28;20036;-69
2022/01/27 11:51:15;;;;;;;1.58;1.30;;;;;;;;;;5061121;28;20047;-73
2022/01/27 11:53:43;;;;;;;4.40;1.35;;;;;;;;;;5062294;28;20037;-75
2022/01/27 11:56:31;;;;;;;2.75;1.55;;;;;;;;;;5061258;28;20028;-74
2022/01/27 11:59:08;;;;;;;2.88;1.75;;;;;;;;;;5061953;28;20042;-72
2022/01/27 12:01:37;;;;;;;2.53;1.85;;;;;;;;;;5061884;28;20067;-70
2022/01/27 12:04:04;;;;;;;7.43;1.73;;;;;;;;;;5059998;28;20093;-72
2022/01/27 12:06:36;;;;;;;2.65;1.92;;;;;;;;;;5059504;28;20037;-70
2022/01/27 12:09:18;;;;;;;2.58;1.63;;;;;;;;;;5061554;28;20028;-71
2022/01/27 12:11:49;;;;;;;3.58;1.88;;;;;;;;;;5062123;28;20036;-71
2022/01/27 12:14:24;;;;;;;3.63;1.77;;;;;;;;;;5062141;28;20035;-72
2022/01/27 12:17:08;;;;;;;5.53;1.75;;;;;;;;;;5061751;28;20043;-72
2022/01/27 12:19:53;;;;;;;1.55;1.45;;;;;;;;;;5061520;28;20036;-71
2022/01/27 12:22:22;;;;;;;4.40;1.50;;;;;;;;;;5043835;28;20032;-71
2022/01/27 12:25:00;;;;;;;6.00;2.15;;;;;;;;;;5061436;28;20029;-71
2022/01/27 12:27:27;;;;;;;9.98;2.05;;;;;;;;;;5061410;28;20826;-72
2022/01/27 12:29:56;;;;;;;1.75;1.65;;;;;;;;;;5059841;28;20135;-74
2022/01/27 12:32:28;;;;;;;2.40;1.80;;;;;;;;;;5061455;28;20036;-72
2022/01/27 12:34:59;;;;;;;2.25;1.45;;;;;;;;;;5061496;28;20127;-69
2022/01/27 12:37:39;;;;;;;1.75;1.23;;;;;;;;;;5057928;28;20040;-70
2022/01/27 12:40:16;;;;;;;2.92;1.85;;;;;;;;;;5049156;28;20040;-72
2022/01/27 12:42:57;;;;;;;3.22;1.90;;;;;;;;;;5059331;28;20040;-71
2022/01/27 12:45:28;;;;;;;3.15;2.20;;;;;;;;;;5058874;28;20037;-74
2022/01/27 12:47:56;;;;;;;4.70;1.70;;;;;;;;;;5059088;28;20108;-72
2022/01/27 12:50:23;;;;;;;5.13;2.08;;;;;;;;;;5058052;28;20121;-72
2022/01/27 12:52:53;;;;;;;3.28;2.08;;;;;;;;;;5058402;28;20066;-74
2022/01/27 12:55:22;;;;;;;2.88;2.03;;;;;;;;;;5058461;28;20150;-74
2022/01/27 12:58:11;;;;;;;6.05;2.47;;;;;;;;;;5060654;28;20036;-73
2022/01/27 13:00:37;;;;;;;3.08;2.15;;;;;;;;;;5058808;28;20035;-72
2022/01/27 13:03:04;;;;;;;4.85;2.95;;;;;;;;;;5059200;28;20040;-73
2022/01/27 13:05:44;;;;;;;4.45;2.22;;;;;;;;;;5060207;28;20082;-73
2022/01/27 13:08:16;;;;;;;5.85;2.35;;;;;;;;;;5057478;28;20657;-73
2022/01/27 13:10:55;;;;;;;3.97;2.40;;;;;;;;;;5057568;28;20028;-75
2022/01/27 13:13:27;;;;;;;4.10;2.85;;;;;;;;;;5055401;28;20044;-74
2022/01/27 13:15:57;;;;;;;4.43;2.80;;;;;;;;;;5058102;28;20048;-72
2022/01/27 13:18:33;;;;;;;7.97;3.50;;;;;;;;;;5056315;28;20039;-70
2022/01/27 13:21:01;;;;;;;5.75;3.38;;;;;;;;;;5059155;28;20139;-71
2022/01/27 13:23:41;;;;;;;4.40;3.13;;;;;;;;;;5060063;28;20505;-72
2022/01/27 13:26:10;;;;;;;6.32;4.10;;;;;;;;;;5050806;28;20389;-70
2022/01/27 13:28:38;;;;;;;5.00;3.22;;;;;;;;;;5075672;28;20044;-72
2022/01/27 13:31:10;;;;;;;8.15;4.13;;;;;;;;;;5059617;28;20166;-72
2022/01/27 13:33:39;;;;;;;5.53;4.10;;;;;;;;;;5061532;28;20040;-73
2022/01/27 13:36:09;;;;;;;8.57;4.47;;;;;;;;;;5060728;28;20036;-72
2022/01/27 13:38:49;;;;;;;8.60;4.20;;;;;;;;;;5058920;28;20044;-73
2022/01/27 13:41:24;;;;;;;10.15;4.90;;;;;;;;;;5058880;28;20115;-73
2022/01/27 13:43:52;;;;;;;6.32;4.40;;;;;;;;;;5059197;28;20755;-73
2022/01/27 13:46:39;;;;;;;8.00;4.18;;;;;;;;;;5058148;28;20120;-72
2022/01/27 13:49:22;;;;;;;8.82;5.47;;;;;;;;;;5060365;28;20052;-72
2022/01/27 13:51:52;;;;;;;12.07;4.80;;;;;;;;;;5060888;28;20032;-72
2022/01/27 13:54:31;;;;;;;6.45;3.60;;;;;;;;;;5061622;28;20679;-72
2022/01/27 13:57:12;;;;;;;10.38;5.15;;;;;;;;;;5058890;28;20043;-71
2022/01/27 13:59:52;;;;;;;9.52;5.03;;;;;;;;;;5060516;28;20082;-70
2022/01/27 14:02:20;;;;;;;9.07;6.15;;;;;;;;;;5059401;28;20414;-71
2022/01/27 14:04:54;;;;;;;9.63;6.53;;;;;;;;;;5059485;28;20044;-70
2022/01/27 14:07:30;;;;;;;12.95;6.82;;;;;;;;;;5058720;28;20033;-72
2022/01/27 14:10:05;;;;;;;11.60;5.20;;;;;;;;;;5059363;28;20103;-71
2022/01/27 14:13:00;;;;;;;9.20;6.32;;;;;;;;;;5058337;28;20044;-71
2022/01/27 14:15:42;;;;;;;10.18;6.43;;;;;;;;;;5059259;28;20100;-71
2022/01/27 14:18:11;;;;;;;14.73;6.40;;;;;;;;;;5062508;28;20512;-71
2022/01/27 14:20:55;;;;;;;12.70;6.72;;;;;;;;;;5063991;28;20043;-71
2022/01/27 14:24:20;;;;;;;11.50;4.15;;;;;;;;;;5057989;28;20044;-73
2022/01/27 14:26:36;;;;;;;9.07;5.90;;;;;;;;;;5059966;28;20055;-71
2022/01/27 14:29:04;;;;;;;9.40;5.55;;;;;;;;;;5062870;28;20127;-71
2022/01/27 14:31:30;;;;;;;14.20;7.55;;;;;;;;;;5063860;28;20808;-70
2022/01/27 14:33:56;;;;;;;10.35;5.72;;;;;;;;;;5064133;28;20032;-71
2022/01/27 14:36:22;;;;;;;11.68;7.13;;;;;;;;;;5061633;28;20085;-71
2022/01/27 14:38:48;;;;;;;13.02;7.70;;;;;;;;;;5061852;28;20449;-73
2022/01/27 14:41:14;;;;;;;12.55;6.70;;;;;;;;;;5063800;28;20094;-71
2022/01/27 14:43:41;;;;;;;11.82;8.20;;;;;;;;;;5063173;28;20064;-70
2022/01/27 14:46:09;;;;;;;14.20;8.23;;;;;;;;;;5063293;28;20119;-71
2022/01/27 14:48:39;;;;;;;13.80;8.23;;;;;;;;;;5051307;28;20039;-70
2022/01/27 14:51:08;;;;;;;13.68;7.90;;;;;;;;;;5063247;28;20055;-73
2022/01/27 14:53:35;;;;;;;18.00;8.50;;;;;;;;;;5061799;28;20086;-71
2022/01/27 14:56:02;;;;;;;15.57;8.63;;;;;;;;;;5062277;28;20067;-71
2022/01/27 14:58:28;;;;;;;14.60;7.85;;;;;;;;;;5061493;28;20808;-71
2022/01/27 15:00:53;;;;;;;16.15;7.97;;;;;;;;;;5062746;28;20605;-71
2022/01/27 15:03:19;;;;;;;15.90;8.10;;;;;;;;;;5062269;28;20090;-72
2022/01/27 15:05:45;;;;;;;19.67;8.20;;;;;;;;;;5062146;28;20465;-72
2022/01/27 15:08:10;;;;;;;12.85;8.32;;;;;;;;;;5062467;28;20029;-71
2022/01/27 15:10:38;;;;;;;16.35;7.95;;;;;;;;;;5063017;28;20082;-71
2022/01/27 15:13:04;;;;;;;10.82;7.18;;;;;;;;;;5063350;28;20074;-73
2022/01/27 15:20:59;;;;;;;19.05;8.70;;;;;;;;;;5060612;28;20028;-71
2022/01/27 15:23:25;;;;;;;16.25;8.90;;;;;;;;;;5060071;28;20097;-70
2022/01/27 15:25:51;;;;;;;21.13;9.48;;;;;;;;;;5061144;28;20037;-71
2022/01/27 15:28:18;;;;;;;21.88;9.40;;;;;;;;;;5062891;28;20039;-71
2022/01/27 15:30:43;;;;;;;18.50;9.40;;;;;;;;;;5060943;28;20021;-73